TAF SEQM
SEQM 081630Z 0818/0918 01010KT 9999 SCT030 BKN100 PROB30 TEMPO 0821/0823 TSRA FEW026CB BKN030 BKN100 BECMG 0823/0901 04005KT SCT010 BKN020 BECMG 0904/0906 VRB03KT SCT005 BKN020 TEMPO 0909/0911 4000 BCFG BECMG 0911/0913 SCT023 SCT100 TX22/0819Z TN12/0911Z=
METAR SEQM
WC SEQM
WS SEQM
WV SEQM